Time;durP1;ratioP1;P1;durP2;ratioP2;P2;SDS_P1;SDS_P2;PMS_P1;PMS_P2;Temp;Humidity;BMP_temperature;BMP_pressure;BME280_temperature;BME280_humidity;BME280_pressure;Samples;Min_cycle;Max_cycle;Signal;HPM_P1;HPM_P2
2021/05/28 00:01:37;;;;;;;13.93;12.30;;;;;;;12.10;65.83;100455.91;125181;1101;103482;-89
2021/05/28 00:04:06;;;;;;;15.28;12.55;;;;;;;12.03;66.12;100459.67;125099;1096;103118;-89
2021/05/28 00:06:47;;;;;;;15.10;12.73;;;;;;;12.02;66.13;100458.81;124972;1096;104032;-89
2021/05/28 00:09:14;;;;;;;19.73;12.20;;;;;;;12.04;65.99;100461.42;124971;1101;103080;-89
2021/05/28 00:11:42;;;;;;;16.07;11.23;;;;;;;12.04;66.33;100456.08;125209;1097;103162;-89
2021/05/28 00:14:09;;;;;;;14.80;12.20;;;;;;;12.00;66.22;100455.30;125607;1101;103139;-88
2021/05/28 00:16:37;;;;;;;13.68;11.03;;;;;;;11.93;66.72;100453.72;125658;1101;103788;-88
2021/05/28 00:19:04;;;;;;;16.33;11.67;;;;;;;11.90;66.52;100459.13;125677;1101;103496;-89
2021/05/28 00:21:31;;;;;;;14.60;12.90;;;;;;;11.92;66.32;100461.78;125840;1101;103059;-90
2021/05/28 00:23:59;;;;;;;19.13;12.90;;;;;;;11.95;66.63;100454.56;126848;1101;102979;-89
2021/05/28 00:26:40;;;;;;;13.98;12.58;;;;;;;11.84;66.62;100454.87;126265;1099;103326;-89
2021/05/28 00:29:08;;;;;;;18.33;13.70;;;;;;;11.90;66.12;100461.80;124962;1100;103380;-88
2021/05/28 00:31:36;;;;;;;18.90;13.30;;;;;;;12.00;66.52;100465.97;125225;1096;103161;-88
2021/05/28 00:34:04;;;;;;;16.93;14.05;;;;;;;11.90;66.51;100455.61;125414;1101;103151;-89
2021/05/28 00:36:31;;;;;;;19.30;13.93;;;;;;;11.88;66.48;100456.52;125408;1101;102989;-88
2021/05/28 00:38:58;;;;;;;15.40;13.80;;;;;;;11.84;66.53;100462.88;125599;1101;103136;-89
2021/05/28 00:41:26;;;;;;;15.10;12.97;;;;;;;11.78;66.82;100459.52;125769;1096;103219;-88
2021/05/28 00:43:53;;;;;;;23.20;13.87;;;;;;;11.75;66.60;100463.16;125302;1102;103438;-88
2021/05/28 00:46:23;;;;;;;20.57;14.70;;;;;;;11.80;66.79;100473.70;125658;1096;103067;-87
2021/05/28 00:48:52;;;;;;;18.43;13.80;;;;;;;11.79;66.55;100466.61;125360;1096;103129;-88
2021/05/28 00:51:21;;;;;;;16.25;13.20;;;;;;;11.67;67.01;100476.72;125564;1101;101963;-87
2021/05/28 00:53:49;;;;;;;16.80;13.70;;;;;;;11.58;67.39;100476.13;125528;1096;103152;-87
2021/05/28 00:56:17;;;;;;;17.37;13.90;;;;;;;11.54;67.29;100478.89;125581;1096;103142;-86
2021/05/28 00:58:46;;;;;;;16.17;14.57;;;;;;;11.55;67.50;100477.09;125456;1096;103107;-87
2021/05/28 01:01:14;;;;;;;19.80;15.90;;;;;;;11.50;67.56;100477.23;126289;1096;103195;-88
2021/05/28 01:03:42;;;;;;;15.53;12.38;;;;;;;11.44;67.58;100473.88;125517;1101;103162;-87
2021/05/28 01:06:10;;;;;;;20.00;13.83;;;;;;;11.50;67.28;100471.00;126414;1101;103112;-87
2021/05/28 01:08:37;;;;;;;15.20;11.80;;;;;;;11.48;67.66;100475.53;125582;1101;103310;-87
2021/05/28 01:11:05;;;;;;;17.88;13.78;;;;;;;11.52;67.33;100482.52;125671;1101;103065;-88
2021/05/28 01:13:32;;;;;;;14.60;13.00;;;;;;;11.47;67.24;100485.30;125699;1101;103020;-88
2021/05/28 01:16:13;;;;;;;15.70;12.80;;;;;;;11.45;67.49;100484.48;125692;1101;103358;-88
2021/05/28 01:18:41;;;;;;;14.63;13.03;;;;;;;11.36;67.61;100495.41;125428;1096;103007;-88
2021/05/28 01:21:22;;;;;;;18.45;13.98;;;;;;;11.29;67.84;100501.81;125870;1096;103077;-87
2021/05/28 01:24:04;;;;;;;14.95;12.80;;;;;;;11.32;67.54;100499.09;125179;1098;103355;-87
2021/05/28 01:26:45;;;;;;;15.60;14.07;;;;;;;11.33;67.90;100492.84;124825;1108;103336;-90
2021/05/28 01:29:14;;;;;;;14.75;13.30;;;;;;;11.42;67.44;100494.36;124905;1108;103230;-90
2021/05/28 01:31:42;;;;;;;18.33;14.00;;;;;;;11.48;67.54;100499.53;124914;1103;103008;-89
2021/05/28 01:34:10;;;;;;;18.08;14.80;;;;;;;11.49;66.97;100490.59;124886;1107;103214;-88
2021/05/28 01:36:38;;;;;;;16.45;13.68;;;;;;;11.48;67.18;100491.53;125182;1104;103315;-90
2021/05/28 01:39:06;;;;;;;26.03;14.37;;;;;;;11.49;67.29;100493.25;125175;1099;103269;-89
2021/05/28 01:41:47;;;;;;;18.10;14.93;;;;;;;11.42;67.38;100497.02;124429;1103;103163;-89
2021/05/28 01:44:17;;;;;;;17.93;14.60;;;;;;;11.44;67.55;100497.88;124492;1108;103083;-89
2021/05/28 01:46:44;;;;;;;17.60;13.50;;;;;;;11.43;67.08;100491.64;124867;1102;103234;-92
2021/05/28 01:49:11;;;;;;;15.55;13.93;;;;;;;11.43;67.17;100488.98;124812;1102;103403;-88
2021/05/28 01:51:49;;;;;;;16.37;13.27;;;;;;;11.48;67.43;100491.53;124825;1108;102984;-89
2021/05/28 01:54:19;;;;;;;16.93;14.33;;;;;;;11.44;67.36;100488.06;124826;1107;103066;-90
2021/05/28 01:56:47;;;;;;;16.87;12.93;;;;;;;11.40;67.48;100493.55;124860;1108;103343;-89
2021/05/28 01:59:24;;;;;;;16.67;12.87;;;;;;;11.33;67.90;100500.84;124739;1103;103240;-90
2021/05/28 02:01:52;;;;;;;15.10;13.60;;;;;;;11.30;68.34;100499.13;125102;1107;103101;-89
2021/05/28 02:04:23;;;;;;;14.58;11.78;;;;;;;11.29;68.24;100504.48;125504;1105;103168;-90
2021/05/28 02:06:52;;;;;;;17.75;13.93;;;;;;;11.25;68.36;100509.05;125343;1098;103229;-91
2021/05/28 02:09:34;;;;;;;15.48;12.38;;;;;;;11.21;68.94;100510.05;125170;1100;102984;-90
2021/05/28 02:12:01;;;;;;;21.57;14.47;;;;;;;11.19;68.64;100509.20;125244;1104;103014;-89
2021/05/28 02:14:43;;;;;;;14.45;12.95;;;;;;;11.14;68.81;100498.68;124847;1108;103235;-89
2021/05/28 02:17:11;;;;;;;16.50;13.57;;;;;;;11.09;69.36;100503.26;124799;1103;103155;-89
2021/05/28 02:19:38;;;;;;;14.47;12.97;;;;;;;11.09;69.29;100505.03;126776;1101;102947;-90
2021/05/28 02:22:10;;;;;;;16.53;13.38;;;;;;;11.11;69.13;100497.88;126903;1097;102974;-90
2021/05/28 02:24:52;;;;;;;20.77;13.30;;;;;;;11.12;69.50;100497.83;125016;1101;103080;-89
2021/05/28 02:27:34;;;;;;;12.78;11.55;;;;;;;11.07;69.30;100502.41;125211;1101;104023;-89
2021/05/28 02:30:03;;;;;;;15.33;12.98;;;;;;;11.01;69.63;100506.13;125541;1096;103235;-90
2021/05/28 02:32:31;;;;;;;13.70;12.33;;;;;;;11.00;69.14;100507.03;125700;1101;103074;-88
2021/05/28 02:34:59;;;;;;;12.25;11.05;;;;;;;11.06;69.53;100507.78;125352;1101;103061;-89
2021/05/28 02:37:26;;;;;;;15.20;12.30;;;;;;;11.07;69.35;100510.41;125597;1101;103192;-89
2021/05/28 02:39:54;;;;;;;12.87;11.40;;;;;;;11.09;69.26;100515.69;125596;1096;103144;-89
2021/05/28 02:42:22;;;;;;;14.23;12.90;;;;;;;11.07;69.60;100514.88;125568;1101;103340;-89
2021/05/28 02:44:50;;;;;;;14.08;12.78;;;;;;;11.06;69.67;100513.98;125631;1101;103023;-90
2021/05/28 02:47:17;;;;;;;13.70;12.30;;;;;;;11.08;69.57;100512.16;125211;1101;103160;-89
2021/05/28 02:49:44;;;;;;;13.20;11.85;;;;;;;11.02;69.81;100518.53;125649;1101;103054;-90
2021/05/28 02:52:26;;;;;;;13.65;12.35;;;;;;;11.06;69.57;100518.45;125368;1101;103109;-89
2021/05/28 02:54:54;;;;;;;13.18;11.75;;;;;;;11.07;69.85;100520.20;125463;1096;103897;-90
2021/05/28 02:57:22;;;;;;;14.60;12.80;;;;;;;11.13;69.81;100522.69;125572;1101;103037;-90
2021/05/28 02:59:49;;;;;;;15.97;14.37;;;;;;;11.21;69.46;100524.24;125647;1101;103049;-88
2021/05/28 03:02:18;;;;;;;14.43;12.68;;;;;;;11.31;69.02;100526.66;125823;1101;103086;-88
2021/05/28 03:04:46;;;;;;;18.47;13.53;;;;;;;11.39;68.74;100521.98;125262;1101;103222;-90
2021/05/28 03:07:13;;;;;;;15.20;12.83;;;;;;;11.43;68.82;100523.64;125485;1096;103106;-90
2021/05/28 03:09:41;;;;;;;13.50;12.20;;;;;;;11.51;69.48;100518.97;125338;1096;103324;-89
2021/05/28 03:12:13;;;;;;;18.83;13.08;;;;;;;11.61;69.56;100518.70;125351;1102;103087;-90
2021/05/28 03:14:43;;;;;;;14.00;12.47;;;;;;;11.70;69.10;100519.33;125756;1101;103116;-90
2021/05/28 03:17:10;;;;;;;13.97;12.37;;;;;;;11.80;69.53;100516.39;125713;1101;103647;-90
2021/05/28 03:19:47;;;;;;;14.13;11.88;;;;;;;11.92;68.42;100516.02;125553;1096;103163;-90
2021/05/28 03:25:16;;;;;;;15.10;13.50;;;;;;;12.16;67.88;100526.91;125578;1101;103185;-89
2021/05/28 03:27:57;;;;;;;14.23;11.58;;;;;;;12.27;67.42;100510.55;125466;1101;104191;-90
2021/05/28 03:30:25;;;;;;;12.60;10.55;;;;;;;12.32;67.36;100516.63;124870;1096;103340;-90
2021/05/28 03:32:53;;;;;;;12.43;10.67;;;;;;;12.37;67.39;100506.67;125498;1101;103051;-88
2021/05/28 03:35:34;;;;;;;11.35;10.15;;;;;;;12.45;66.97;100506.41;125033;1096;103486;-88
2021/05/28 03:38:02;;;;;;;11.70;9.30;;;;;;;12.49;66.83;100508.08;125332;1101;103081;-91
2021/05/28 03:40:29;;;;;;;10.43;9.35;;;;;;;12.52;66.78;100508.83;125107;1101;103158;-89
2021/05/28 03:42:57;;;;;;;11.47;9.83;;;;;;;12.54;66.79;100522.13;125081;1096;103055;-88
2021/05/28 03:45:24;;;;;;;10.53;9.43;;;;;;;12.63;66.75;100523.64;125067;1101;103129;-90
2021/05/28 03:47:52;;;;;;;10.83;8.93;;;;;;;12.64;66.73;100522.73;124998;1101;103160;-89
2021/05/28 03:50:19;;;;;;;13.57;9.97;;;;;;;12.66;67.07;100523.53;125372;1096;103004;-90
2021/05/28 03:52:47;;;;;;;9.83;8.83;;;;;;;12.69;66.56;100528.80;125156;1096;103225;-90
2021/05/28 03:55:15;;;;;;;10.63;9.53;;;;;;;12.77;66.45;100524.06;125352;1096;103119;-90
2021/05/28 03:57:43;;;;;;;11.45;9.10;;;;;;;12.78;65.91;100530.27;125264;1096;103214;-91
2021/05/28 04:00:11;;;;;;;11.93;8.50;;;;;;;12.76;66.50;100526.80;125249;1101;103100;-90
2021/05/28 04:02:39;;;;;;;10.15;7.98;;;;;;;12.72;66.24;100531.36;125247;1102;103059;-89
2021/05/28 04:05:09;;;;;;;11.53;9.90;;;;;;;12.65;66.31;100524.48;125248;1097;102933;-91
2021/05/28 04:07:37;;;;;;;9.97;8.87;;;;;;;12.65;66.46;100524.48;125086;1101;103073;-90
2021/05/28 04:10:05;;;;;;;10.13;9.13;;;;;;;12.74;66.21;100521.47;124883;1096;103233;-91
2021/05/28 04:12:32;;;;;;;9.20;8.25;;;;;;;12.78;66.29;100517.80;125080;1096;103077;-88
2021/05/28 04:15:02;;;;;;;13.97;10.03;;;;;;;12.75;66.21;100533.92;126802;1101;103058;-91
2021/05/28 04:17:43;;;;;;;9.80;8.80;;;;;;;12.71;66.44;100529.60;126586;1101;103046;-89
2021/05/28 04:20:12;;;;;;;9.83;8.60;;;;;;;12.77;66.42;100532.08;125340;1101;103187;-90
2021/05/28 04:22:40;;;;;;;9.00;8.20;;;;;;;12.82;66.16;100538.16;125443;1101;103147;-89
2021/05/28 04:25:21;;;;;;;8.97;8.07;;;;;;;12.81;66.28;100539.07;125281;1101;103904;-88
2021/05/28 04:28:03;;;;;;;9.07;8.20;;;;;;;12.83;66.16;100541.69;125085;1096;103065;-88
2021/05/28 04:30:30;;;;;;;9.00;8.20;;;;;;;12.82;66.49;100546.17;125028;1101;103217;-90
2021/05/28 04:33:12;;;;;;;8.55;7.63;;;;;;;12.88;66.23;100543.27;125258;1101;103058;-88
2021/05/28 04:35:39;;;;;;;7.93;7.23;;;;;;;12.91;66.36;100539.63;125062;1101;103224;-87
2021/05/28 04:38:07;;;;;;;8.70;7.80;;;;;;;12.91;66.31;100544.97;124839;1102;103138;-89
2021/05/28 04:40:34;;;;;;;7.70;6.97;;;;;;;12.88;66.51;100534.39;125126;1101;103450;-90
2021/05/28 04:43:02;;;;;;;8.70;7.87;;;;;;;12.90;66.40;100537.01;124965;1096;103090;-89
2021/05/28 04:45:29;;;;;;;15.35;12.03;;;;;;;12.97;66.45;100542.10;124859;1104;103189;-87
2021/05/28 04:47:57;;;;;;;8.75;7.55;;;;;;;12.99;66.46;100537.56;125128;1097;103141;-89
2021/05/28 04:50:31;;;;;;;10.40;8.90;;;;;;;13.07;66.30;100542.65;125075;1104;103122;-86
2021/05/28 04:53:03;;;;;;;9.80;8.90;;;;;;;13.12;66.41;100538.02;124831;1097;103153;-88
2021/05/28 04:55:32;;;;;;;9.13;7.75;;;;;;;13.17;66.24;100533.39;124889;1097;103069;-88
2021/05/28 04:58:00;;;;;;;11.20;8.15;;;;;;;13.21;66.03;100535.02;124769;1097;103122;-85
2021/05/28 05:00:28;;;;;;;9.95;9.05;;;;;;;13.19;66.14;100542.25;124851;1101;103083;-87
2021/05/28 05:03:09;;;;;;;8.93;8.03;;;;;;;13.18;66.46;100539.59;124987;1102;103147;-86
2021/05/28 05:05:37;;;;;;;8.00;7.23;;;;;;;13.18;65.97;100537.81;125106;1104;103552;-90
2021/05/28 05:08:04;;;;;;;12.57;8.30;;;;;;;13.18;66.40;100537.81;125238;1097;103071;-87
2021/05/28 05:10:45;;;;;;;9.08;8.18;;;;;;;13.22;66.20;100535.88;125156;1104;103091;-86
2021/05/28 05:13:14;;;;;;;9.87;8.87;;;;;;;13.24;65.76;100536.72;125325;1104;103253;-87
2021/05/28 05:15:41;;;;;;;11.38;8.88;;;;;;;13.28;66.26;100541.03;125090;1101;103161;-82
2021/05/28 05:18:09;;;;;;;11.70;9.05;;;;;;;13.33;66.18;100541.75;125102;1096;103413;-84
2021/05/28 05:20:37;;;;;;;10.65;8.00;;;;;;;13.35;65.93;100539.01;125330;1096;102969;-85
2021/05/28 05:23:04;;;;;;;9.48;7.80;;;;;;;13.37;65.73;100546.09;125346;1104;103237;-84
2021/05/28 05:25:33;;;;;;;10.93;8.75;;;;;;;13.42;65.77;100550.40;125361;1104;103004;-83
2021/05/28 05:28:00;;;;;;;9.50;8.50;;;;;;;13.46;65.84;100538.66;125300;1104;103059;-84
2021/05/28 05:30:28;;;;;;;8.58;7.78;;;;;;;13.44;65.87;100546.74;125312;1101;103097;-87
2021/05/28 05:32:55;;;;;;;8.20;7.13;;;;;;;13.52;65.61;100538.45;125270;1104;103863;-83
2021/05/28 05:35:23;;;;;;;8.50;7.58;;;;;;;13.56;65.48;100541.89;125281;1104;103154;-84
2021/05/28 05:37:50;;;;;;;9.90;8.90;;;;;;;13.59;65.46;100545.30;125288;1101;103051;-87
2021/05/28 05:40:18;;;;;;;10.87;9.30;;;;;;;13.62;65.10;100541.64;125464;1104;103620;-86
2021/05/28 05:42:46;;;;;;;9.98;8.98;;;;;;;13.65;65.58;100544.23;125294;1104;102998;-86
2021/05/28 05:45:15;;;;;;;10.15;7.90;;;;;;;13.73;65.40;100544.81;125500;1101;103223;-83
2021/05/28 05:47:43;;;;;;;8.65;7.78;;;;;;;13.77;65.00;100542.88;125451;1096;103642;-85
2021/05/28 05:50:12;;;;;;;10.50;9.40;;;;;;;13.79;64.63;100544.56;125604;1101;103445;-86
2021/05/28 05:52:39;;;;;;;8.77;8.00;;;;;;;13.83;64.75;100546.19;125547;1096;103097;-85
2021/05/28 05:55:09;;;;;;;10.95;9.05;;;;;;;13.92;64.87;100541.45;125567;1101;102977;-83
2021/05/28 05:57:37;;;;;;;9.33;8.23;;;;;;;14.07;64.76;100546.20;125395;1102;103017;-86
2021/05/28 06:00:05;;;;;;;11.27;8.83;;;;;;;14.23;64.49;100549.16;125410;1096;103054;-86
2021/05/28 06:02:34;;;;;;;9.20;8.30;;;;;;;14.34;63.70;100557.66;125414;1101;103150;-85
2021/05/28 06:05:18;;;;;;;10.87;8.10;;;;;;;14.35;63.08;100553.16;125572;1101;102998;-84
2021/05/28 06:07:46;;;;;;;11.27;8.33;;;;;;;14.35;63.63;100551.38;125458;1101;103087;-86
2021/05/28 06:10:14;;;;;;;9.25;8.30;;;;;;;14.45;63.44;100549.19;125720;1101;103086;-85
2021/05/28 06:12:41;;;;;;;10.27;8.13;;;;;;;14.60;62.93;100562.91;125832;1101;103297;-83
2021/05/28 06:15:22;;;;;;;11.13;9.20;;;;;;;14.65;63.05;100560.95;126256;1101;103063;-80
2021/05/28 06:17:53;;;;;;;9.30;8.50;;;;;;;14.68;62.55;100566.18;124951;1094;103080;-79
2021/05/28 06:20:21;;;;;;;10.53;9.53;;;;;;;14.69;63.06;100565.25;126442;1101;103251;-86
2021/05/28 06:22:48;;;;;;;10.05;8.95;;;;;;;14.77;62.43;100562.23;125594;1101;103148;-84
2021/05/28 06:25:16;;;;;;;10.27;8.93;;;;;;;14.81;62.47;100561.20;125557;1096;103130;-83
2021/05/28 06:27:57;;;;;;;9.18;8.25;;;;;;;14.92;62.23;100568.80;125183;1100;103265;-84
2021/05/28 06:30:25;;;;;;;8.70;7.90;;;;;;;14.95;62.06;100566.84;125123;1104;103288;-85
2021/05/28 06:32:52;;;;;;;10.57;9.03;;;;;;;14.93;62.41;100575.88;125317;1096;103094;-83
2021/05/28 06:35:20;;;;;;;10.40;9.07;;;;;;;14.91;62.05;100567.91;125539;1101;103085;-83
2021/05/28 06:37:48;;;;;;;8.90;8.03;;;;;;;14.93;61.57;100574.09;125527;1096;103163;-85
2021/05/28 06:40:16;;;;;;;8.43;6.90;;;;;;;14.97;61.19;100575.70;125180;1096;103113;-85
2021/05/28 06:42:57;;;;;;;7.90;7.13;;;;;;;15.00;61.34;100570.20;125093;1104;103651;-84
2021/05/28 06:45:25;;;;;;;9.10;6.60;;;;;;;14.95;61.00;100574.88;125174;1103;103199;-83
2021/05/28 06:47:52;;;;;;;7.60;6.53;;;;;;;14.91;61.33;100572.41;125568;1101;103113;-84
2021/05/28 06:50:20;;;;;;;9.80;7.30;;;;;;;14.98;61.70;100569.41;125372;1103;102940;-85
2021/05/28 06:52:48;;;;;;;9.33;8.03;;;;;;;15.05;61.67;100565.52;125576;1101;103088;-85
2021/05/28 06:55:15;;;;;;;6.75;6.15;;;;;;;15.11;61.44;100575.11;125298;1096;103109;-85
2021/05/28 06:57:43;;;;;;;8.15;7.35;;;;;;;15.20;61.39;100576.54;125201;1102;101987;-86
2021/05/28 07:00:11;;;;;;;7.90;7.10;;;;;;;15.23;60.98;100572.85;125029;1096;103056;-88
2021/05/28 07:02:38;;;;;;;11.13;7.13;;;;;;;15.23;61.73;100579.08;125457;1101;103275;-86
2021/05/28 07:05:08;;;;;;;7.58;6.75;;;;;;;15.24;60.65;100569.24;125297;1104;103782;-86
2021/05/28 07:07:36;;;;;;;7.30;6.30;;;;;;;15.19;60.49;100577.47;125581;1096;103079;-89
2021/05/28 07:10:17;;;;;;;5.88;5.30;;;;;;;15.25;60.31;100579.01;125300;1104;103640;-88
2021/05/28 07:12:58;;;;;;;7.97;6.13;;;;;;;15.27;59.64;100577.15;125337;1100;103722;-87
2021/05/28 07:15:40;;;;;;;5.20;4.58;;;;;;;15.37;59.05;100581.19;125626;1104;103116;-86
2021/05/28 07:18:08;;;;;;;6.28;5.48;;;;;;;15.38;59.25;100572.17;125158;1100;103262;-89
2021/05/28 07:20:35;;;;;;;5.67;5.03;;;;;;;15.50;58.72;100578.81;124932;1104;103289;-87
2021/05/28 07:23:07;;;;;;;7.50;5.60;;;;;;;15.56;58.25;100581.24;125236;1105;103218;-87
2021/05/28 07:25:35;;;;;;;8.20;5.33;;;;;;;15.62;58.72;100578.30;125158;1104;103814;-88
2021/05/28 07:28:03;;;;;;;6.23;5.23;;;;;;;15.65;58.46;100577.29;125149;1104;103395;-88
2021/05/28 07:30:31;;;;;;;5.57;5.10;;;;;;;15.67;57.11;100581.66;124978;1099;103107;-88
2021/05/28 07:32:59;;;;;;;5.55;4.73;;;;;;;15.76;57.83;100576.80;124881;1104;103136;-87
2021/05/28 07:35:28;;;;;;;6.58;5.00;;;;;;;15.83;57.53;100579.19;124912;1104;103337;-86
2021/05/28 07:37:56;;;;;;;5.90;5.30;;;;;;;15.84;56.94;100575.53;124839;1100;103310;-87
2021/05/28 07:40:23;;;;;;;6.00;5.18;;;;;;;15.80;57.61;100579.30;125021;1104;103210;-84
2021/05/28 07:42:51;;;;;;;6.23;4.93;;;;;;;15.86;56.44;100588.88;125208;1104;103197;-80
2021/05/28 07:45:18;;;;;;;5.93;4.08;;;;;;;15.95;55.85;100579.55;125324;1100;103246;-86
2021/05/28 07:47:46;;;;;;;6.93;5.33;;;;;;;15.96;56.73;100586.67;125382;1101;103246;-84
2021/05/28 07:50:14;;;;;;;4.50;4.10;;;;;;;16.03;57.09;100589.02;125496;1101;103118;-89
2021/05/28 07:52:55;;;;;;;4.50;3.75;;;;;;;16.25;56.52;100579.94;125582;1101;103047;-86
2021/05/28 07:55:36;;;;;;;4.73;3.43;;;;;;;16.41;56.01;100595.32;125603;1101;102989;-89
2021/05/28 07:58:04;;;;;;;3.88;3.58;;;;;;;16.41;54.03;100596.22;125272;1101;103713;-86
2021/05/28 08:00:31;;;;;;;3.47;3.10;;;;;;;16.49;54.14;100583.27;125578;1101;102976;-85
2021/05/28 08:03:00;;;;;;;3.97;3.60;;;;;;;16.57;53.98;100596.35;125308;1101;103056;-85
2021/05/28 08:05:29;;;;;;;3.87;3.43;;;;;;;16.63;53.41;100592.48;125219;1096;103517;-82
2021/05/28 08:08:02;;;;;;;5.10;3.80;;;;;;;16.68;53.68;100590.45;125565;1101;103087;-86
2021/05/28 08:10:30;;;;;;;4.80;4.20;;;;;;;16.88;53.94;100602.92;126753;1101;103744;-83
2021/05/28 08:12:57;;;;;;;4.67;4.30;;;;;;;16.92;52.80;100588.39;124991;1096;103029;-84
2021/05/28 08:15:25;;;;;;;5.23;4.18;;;;;;;16.81;52.82;100593.42;125402;1101;103088;-84
2021/05/28 08:17:53;;;;;;;4.90;4.10;;;;;;;16.82;52.65;100585.27;125377;1101;103123;-86
2021/05/28 08:20:20;;;;;;;3.90;3.38;;;;;;;16.99;52.45;100583.58;125255;1102;103222;-86
2021/05/28 08:22:48;;;;;;;6.20;3.63;;;;;;;17.13;52.47;100581.06;125268;1102;103159;-83
2021/05/28 08:25:17;;;;;;;4.37;3.90;;;;;;;17.09;51.77;100590.25;125364;1101;103076;-88
2021/05/28 08:27:44;;;;;;;3.63;3.33;;;;;;;16.96;51.54;100589.98;125248;1101;103531;-88
2021/05/28 08:30:25;;;;;;;3.63;3.00;;;;;;;16.95;51.29;100588.23;125212;1104;103320;-85
2021/05/28 08:32:53;;;;;;;3.58;3.20;;;;;;;17.10;51.56;100591.11;125177;1105;103108;-87
2021/05/28 08:35:21;;;;;;;3.50;3.23;;;;;;;17.11;50.76;100585.64;125231;1103;102972;-89
2021/05/28 08:37:48;;;;;;;2.53;2.33;;;;;;;17.00;50.53;100588.88;125239;1101;103053;-88
2021/05/28 08:40:17;;;;;;;3.20;2.90;;;;;;;16.93;50.52;100598.22;125324;1095;103101;-87
2021/05/28 08:42:45;;;;;;;4.13;2.63;;;;;;;16.91;50.95;100593.86;125308;1101;103243;-88
2021/05/28 08:45:14;;;;;;;3.10;2.80;;;;;;;17.03;50.21;100587.86;125176;1096;103094;-86
2021/05/28 08:47:42;;;;;;;2.00;1.90;;;;;;;17.31;49.15;100589.14;125419;1101;103097;-89
2021/05/28 08:50:11;;;;;;;2.10;1.90;;;;;;;17.46;47.51;100577.59;125571;1101;103158;-88
2021/05/28 08:52:38;;;;;;;2.63;1.78;;;;;;;17.67;47.22;100582.78;125603;1101;103214;-89
2021/05/28 08:55:07;;;;;;;2.40;2.20;;;;;;;17.63;46.88;100581.20;125396;1102;103080;-84
2021/05/28 08:57:34;;;;;;;3.47;2.37;;;;;;;17.58;48.36;100585.97;125514;1101;103059;-86
2021/05/28 09:00:03;;;;;;;2.33;1.90;;;;;;;17.82;48.68;100581.09;125600;1096;103171;-88
2021/05/28 09:02:39;;;;;;;2.50;1.90;;;;;;;18.15;47.02;100581.13;125839;1103;103086;-87
2021/05/28 09:05:25;;;;;;;2.40;2.20;;;;;;;18.47;46.42;100580.27;125223;1104;103538;-85
2021/05/28 09:08:00;;;;;;;2.45;2.25;;;;;;;18.35;46.06;100582.72;125099;1100;103906;-87
2021/05/28 09:10:35;;;;;;;9.47;3.40;;;;;;;18.17;46.76;100581.05;125126;1099;103163;-86
2021/05/28 09:13:06;;;;;;;4.90;3.40;;;;;;;18.05;46.58;100574.50;125200;1098;102974;-88
2021/05/28 09:15:34;;;;;;;5.15;3.08;;;;;;;18.27;46.18;100574.16;125123;1104;103119;-85
2021/05/28 09:18:02;;;;;;;5.53;2.90;;;;;;;18.60;44.55;100570.53;125067;1104;102975;-88
2021/05/28 09:20:29;;;;;;;3.43;1.80;;;;;;;18.65;44.75;100571.14;125143;1104;103235;-83
2021/05/28 09:23:11;;;;;;;3.00;2.58;;;;;;;18.69;44.98;100563.75;125061;1104;103095;-86
2021/05/28 09:25:58;;;;;;;3.00;2.45;;;;;;;19.13;43.69;100562.98;124883;1100;103301;-86
2021/05/28 09:28:26;;;;;;;4.70;3.78;;;;;;;19.28;43.56;100563.89;125091;1100;103075;-87
2021/05/28 09:31:02;;;;;;;3.20;2.73;;;;;;;19.15;43.05;100560.20;125018;1099;103041;-87
2021/05/28 09:33:37;;;;;;;3.93;1.98;;;;;;;19.15;43.39;100560.20;125198;1104;103454;-85
2021/05/28 09:36:24;;;;;;;2.63;2.27;;;;;;;20.07;42.06;100560.92;125210;1104;103428;-86
2021/05/28 09:38:58;;;;;;;2.73;2.27;;;;;;;20.31;40.14;100559.36;125326;1104;103141;-82
2021/05/28 09:41:51;;;;;;;2.30;2.10;;;;;;;20.05;41.12;100555.62;125143;1104;103959;-85
2021/05/28 09:44:28;;;;;;;3.07;1.87;;;;;;;20.01;42.00;100557.64;125326;1096;103283;-86
2021/05/28 09:47:18;;;;;;;2.30;2.08;;;;;;;19.99;41.22;100550.59;125671;1101;103046;-85
2021/05/28 09:49:47;;;;;;;3.18;1.88;;;;;;;19.81;40.38;100558.05;125259;1101;103112;-84
2021/05/28 09:52:27;;;;;;;3.23;1.93;;;;;;;19.78;41.82;100550.96;125528;1101;103083;-84
2021/05/28 09:55:01;;;;;;;2.33;1.90;;;;;;;19.77;40.65;100548.36;125593;1096;103001;-86
2021/05/28 09:57:39;;;;;;;4.13;1.80;;;;;;;20.95;39.29;100544.39;125280;1101;102972;-88
2021/05/28 10:00:14;;;;;;;2.90;1.60;;;;;;;22.08;34.94;100547.44;125488;1101;103082;-82
2021/05/28 10:02:45;;;;;;;2.80;1.40;;;;;;;23.15;34.62;100554.02;125724;1101;103058;-82
2021/05/28 10:05:24;;;;;;;2.17;1.40;;;;;;;24.19;33.60;100538.61;126158;1101;103197;-87
2021/05/28 10:07:52;;;;;;;1.38;1.28;;;;;;;24.75;32.22;100529.52;125404;1101;103209;-85
2021/05/28 10:10:19;;;;;;;1.47;1.37;;;;;;;25.13;31.29;100544.44;125284;1096;103512;-86
2021/05/28 10:12:48;;;;;;;1.53;1.07;;;;;;;26.32;30.51;100530.48;125303;1101;105057;-87
2021/05/28 10:15:30;;;;;;;2.18;1.28;;;;;;;26.72;27.48;100537.77;125102;1096;103088;-83
2021/05/28 10:17:58;;;;;;;1.85;1.40;;;;;;;27.36;27.60;100532.72;125315;1101;103212;-87
2021/05/28 10:20:26;;;;;;;1.10;1.00;;;;;;;26.81;27.63;100539.66;124959;1096;103320;-83
2021/05/28 10:22:53;;;;;;;1.40;1.30;;;;;;;27.24;27.35;100542.95;125275;1101;103059;-83
2021/05/28 10:25:23;;;;;;;2.07;1.63;;;;;;;27.76;27.27;100539.00;125540;1096;103048;-85
2021/05/28 10:27:55;;;;;;;2.80;1.73;;;;;;;27.32;27.03;100537.61;125381;1101;103055;-82
2021/05/28 10:30:28;;;;;;;3.03;1.90;;;;;;;26.73;28.27;100542.24;124855;1101;103292;-81
2021/05/28 10:33:16;;;;;;;2.23;1.03;;;;;;;26.07;29.52;100532.72;125126;1096;103218;-85
2021/05/28 10:35:47;;;;;;;3.15;1.88;;;;;;;25.52;29.30;100543.88;124890;1104;102989;-82
2021/05/28 10:38:50;;;;;;;4.90;2.03;;;;;;;25.92;29.59;100534.91;125034;1096;103516;-85
2021/05/28 10:41:20;;;;;;;2.58;1.55;;;;;;;25.83;29.31;100533.88;124848;1101;103161;-84
2021/05/28 10:43:50;;;;;;;2.55;1.83;;;;;;;26.66;28.42;100538.33;125057;1101;103100;-79
2021/05/28 10:46:18;;;;;;;1.30;1.20;;;;;;;27.39;27.02;100523.40;125242;1096;103104;-83
2021/05/28 10:48:47;;;;;;;1.67;1.10;;;;;;;27.96;27.75;100520.63;125310;1096;103096;-82
2021/05/28 10:51:24;;;;;;;1.63;1.40;;;;;;;27.64;26.50;100520.02;125167;1102;103076;-80
2021/05/28 10:54:08;;;;;;;0.83;0.80;;;;;;;25.94;28.81;100523.84;125837;1101;102955;-82
2021/05/28 10:56:36;;;;;;;1.75;1.65;;;;;;;24.75;30.94;100529.52;124974;1101;103080;-82
2021/05/28 10:59:10;;;;;;;2.67;1.57;;;;;;;23.92;33.09;100531.70;125429;1101;103077;-79
2021/05/28 11:01:51;;;;;;;1.97;1.40;;;;;;;23.25;35.23;100543.33;125412;1096;103494;-80
2021/05/28 11:04:30;;;;;;;2.25;2.00;;;;;;;22.50;36.55;100542.59;125566;1102;103309;-83
2021/05/28 11:07:00;;;;;;;4.10;2.10;;;;;;;21.99;36.90;100536.28;125454;1095;103080;-85
2021/05/28 11:09:41;;;;;;;2.67;2.00;;;;;;;21.65;37.08;100543.24;125801;1101;103080;-83
2021/05/28 11:12:16;;;;;;;3.25;1.55;;;;;;;21.30;38.64;100551.94;125342;1097;103113;-82
2021/05/28 11:15:03;;;;;;;3.27;1.50;;;;;;;20.94;39.92;100548.06;125217;1101;103067;-83
2021/05/28 11:17:31;;;;;;;3.10;1.63;;;;;;;20.49;39.40;100556.42;125596;1101;103080;-82
2021/05/28 11:20:06;;;;;;;2.00;1.30;;;;;;;19.90;39.82;100554.77;125913;1096;103862;-85
2021/05/28 11:22:47;;;;;;;1.27;1.00;;;;;;;19.44;40.32;100552.17;125524;1101;102978;-83
2021/05/28 11:25:32;;;;;;;3.63;1.40;;;;;;;19.14;41.72;100548.54;126099;1102;102976;-81